Time;durP1;ratioP1;P1;durP2;ratioP2;P2;SDS_P1;SDS_P2;PMS_P1;PMS_P2;Temp;Humidity;BMP_temperature;BMP_pressure;BME280_temperature;BME280_humidity;BME280_pressure;Samples;Min_cycle;Max_cycle;Signal;HPM_P1;HPM_P2
2022/06/03 00:02:20;;;;;;;11.75;9.95;;;12.70;93.90;;;;;;5031064;28;20036;-75
2022/06/03 00:05:08;;;;;;;12.38;10.35;;;12.60;94.20;;;;;;5053794;28;20035;-81
2022/06/03 00:07:59;;;;;;;11.65;10.13;;;12.60;93.40;;;;;;5051693;28;20182;-75
2022/06/03 00:10:31;;;;;;;11.20;10.00;;;12.60;94.10;;;;;;5054037;28;20033;-73
2022/06/03 00:13:00;;;;;;;11.68;9.30;;;12.60;94.30;;;;;;5036880;28;20043;-74
2022/06/03 00:15:55;;;;;;;17.08;11.48;;;12.50;94.30;;;;;;5046714;28;20124;-77
2022/06/03 00:18:55;;;;;;;18.52;12.23;;;12.50;94.00;;;;;;5053980;28;20074;-75
2022/06/03 00:21:52;;;;;;;17.25;11.43;;;12.40;94.40;;;;;;4975672;28;20042;-74
2022/06/03 00:24:55;;;;;;;15.07;10.90;;;12.30;94.80;;;;;;4995961;28;20515;-73
2022/06/03 00:27:39;;;;;;;16.65;12.00;;;12.30;94.70;;;;;;4995987;28;20532;-73
2022/06/03 00:30:17;;;;;;;15.68;11.38;;;12.20;94.90;;;;;;4983997;28;20030;-76
2022/06/03 00:32:59;;;;;;;17.27;12.10;;;12.10;95.00;;;;;;4999329;28;20042;-76
2022/06/03 00:35:49;;;;;;;14.10;11.80;;;12.10;94.60;;;;;;4995485;28;20033;-72
2022/06/03 00:38:23;;;;;;;12.75;10.95;;;12.10;94.90;;;;;;4989889;28;20053;-77
2022/06/03 00:41:15;;;;;;;13.93;11.13;;;12.00;94.90;;;;;;4988332;28;20034;-74
2022/06/03 00:43:59;;;;;;;12.27;10.82;;;12.00;94.80;;;;;;4992737;28;20560;-76
2022/06/03 00:46:55;;;;;;;12.57;10.18;;;12.00;94.80;;;;;;4993814;28;20124;-73
2022/06/03 00:49:39;;;;;;;14.30;11.15;;;11.90;94.80;;;;;;4989363;28;20076;-74
2022/06/03 00:52:38;;;;;;;12.20;10.23;;;11.90;95.20;;;;;;4995694;28;20046;-73
2022/06/03 00:55:25;;;;;;;16.50;11.20;;;11.90;95.30;;;;;;4993740;28;20042;-75
2022/06/03 00:58:12;;;;;;;14.23;10.40;;;11.80;95.30;;;;;;5014977;28;20488;-76
2022/06/03 01:01:15;;;;;;;13.07;10.40;;;11.80;95.30;;;;;;5019667;28;20029;-75
2022/06/03 01:03:53;;;;;;;13.50;10.48;;;11.70;95.50;;;;;;5028299;28;20040;-74
2022/06/03 01:06:23;;;;;;;15.15;10.68;;;11.60;95.90;;;;;;5035109;28;20123;-73
2022/06/03 01:09:06;;;;;;;;;;;11.60;95.90;;;;;;5037783;28;20410;-80
2022/06/03 01:11:56;;;;;;;16.48;10.50;;;11.60;96.10;;;;;;5016001;28;19919;-73
2022/06/03 01:14:53;;;;;;;16.95;9.60;;;11.50;96.30;;;;;;5039398;28;20030;-76
2022/06/03 01:17:41;;;;;;;12.68;10.02;;;11.50;96.40;;;;;;5037948;28;20030;-75
2022/06/03 01:20:16;;;;;;;23.90;14.23;;;11.50;96.40;;;;;;5029711;28;20070;-75
2022/06/03 01:22:45;;;;;;;28.23;15.68;;;11.50;96.20;;;;;;5037053;28;20093;-73
2022/06/03 01:25:30;;;;;;;31.48;14.65;;;11.50;96.40;;;;;;5034677;28;20033;-80
2022/06/03 01:28:17;;;;;;;19.05;12.10;;;11.50;96.30;;;;;;5036640;28;20052;-78
2022/06/03 01:31:13;;;;;;;19.90;12.38;;;11.50;96.30;;;;;;5035737;28;20029;-75
2022/06/03 01:34:12;;;;;;;18.38;11.68;;;11.50;96.30;;;;;;5029359;28;20558;-74
2022/06/03 01:37:08;;;;;;;18.35;11.55;;;11.60;96.60;;;;;;5013517;28;20116;-77
2022/06/03 01:40:01;;;;;;;15.73;10.57;;;11.70;96.70;;;;;;5013911;28;20135;-74
2022/06/03 01:42:58;;;;;;;19.23;11.80;;;11.70;96.50;;;;;;5007760;28;20107;-76
2022/06/03 01:45:29;;;;;;;25.20;13.70;;;11.80;96.50;;;;;;5015026;28;20038;-74
2022/06/03 01:48:03;;;;;;;26.83;14.57;;;11.80;96.20;;;;;;5016687;28;20037;-77
2022/06/03 01:50:48;;;;;;;23.88;11.77;;;11.80;96.20;;;;;;4995769;28;20645;-75
2022/06/03 01:53:18;;;;;;;22.23;11.82;;;11.80;96.20;;;;;;5011820;28;20049;-75
2022/06/03 01:56:05;;;;;;;20.92;11.35;;;11.80;96.20;;;;;;5009303;28;20061;-75
2022/06/03 01:58:58;;;;;;;17.70;10.75;;;11.80;96.30;;;;;;5010726;28;20045;-74
2022/06/03 02:01:45;;;;;;;16.55;10.25;;;11.80;96.40;;;;;;5012083;28;20646;-74
2022/06/03 02:04:20;;;;;;;18.20;9.80;;;11.80;96.20;;;;;;5012102;28;20555;-73
2022/06/03 02:06:57;;;;;;;15.60;9.45;;;11.80;96.30;;;;;;5013575;28;20046;-75
2022/06/03 02:09:50;;;;;;;14.93;9.50;;;11.80;96.50;;;;;;5016558;28;20288;-74
2022/06/03 02:12:51;;;;;;;14.23;9.75;;;11.80;96.40;;;;;;5007997;28;20038;-74
2022/06/03 02:15:26;;;;;;;13.13;8.80;;;11.80;96.60;;;;;;5036871;28;20044;-75
2022/06/03 02:18:07;;;;;;;14.35;9.57;;;11.80;96.40;;;;;;5029533;28;20033;-73
2022/06/03 02:21:01;;;;;;;11.65;8.80;;;11.80;96.60;;;;;;5025203;28;20521;-74
2022/06/03 02:24:07;;;;;;;12.60;9.48;;;11.80;96.60;;;;;;5007845;28;20484;-76
2022/06/03 02:27:18;;;;;;;11.48;8.85;;;11.80;96.40;;;;;;4991221;28;20062;-73
2022/06/03 02:33:21;;;;;;;13.10;9.48;;;11.80;96.10;;;;;;4993306;28;20088;-75
2022/06/03 02:35:48;;;;;;;13.38;9.38;;;11.70;96.10;;;;;;4993035;28;20050;-75
2022/06/03 02:38:32;;;;;;;13.27;9.93;;;11.70;96.30;;;;;;5001781;28;20038;-73
2022/06/03 02:41:21;;;;;;;11.13;9.38;;;11.60;96.40;;;;;;4980765;28;20057;-73
2022/06/03 02:44:08;;;;;;;17.20;9.60;;;11.50;96.70;;;;;;4985410;28;20034;-74
2022/06/03 02:47:02;;;;;;;11.15;9.30;;;11.50;96.80;;;;;;4987049;28;20042;-74
2022/06/03 02:50:02;;;;;;;14.80;9.52;;;11.40;96.70;;;;;;4999650;28;20038;-74
2022/06/03 02:52:50;;;;;;;11.30;8.65;;;11.50;97.20;;;;;;4996105;28;20853;-74
2022/06/03 02:55:29;;;;;;;10.60;7.85;;;11.40;97.20;;;;;;4987152;28;20037;-78
2022/06/03 02:58:13;;;;;;;13.20;9.00;;;11.40;97.20;;;;;;4993641;28;20177;-74
2022/06/03 03:01:11;;;;;;;11.60;8.18;;;11.40;97.30;;;;;;5018458;28;20052;-75
2022/06/03 03:03:56;;;;;;;11.68;9.13;;;11.50;97.30;;;;;;5033946;28;20107;-73
2022/06/03 03:07:09;;;;;;;11.50;9.50;;;11.50;97.10;;;;;;5035570;28;20087;-75
2022/06/03 03:09:40;;;;;;;12.70;8.73;;;11.50;96.90;;;;;;5032280;28;20395;-74
2022/06/03 03:12:32;;;;;;;12.10;8.50;;;11.50;96.80;;;;;;5040536;28;20029;-73
2022/06/03 03:15:28;;;;;;;13.35;10.45;;;11.50;96.80;;;;;;5039248;28;20510;-75
2022/06/03 03:18:08;;;;;;;13.20;10.23;;;11.50;96.70;;;;;;5024706;28;20041;-76
2022/06/03 03:20:53;;;;;;;;;;;11.50;96.90;;;;;;5048790;28;20128;-75
2022/06/03 03:23:56;;;;;;;13.18;9.50;;;11.50;96.90;;;;;;5031246;28;19913;-74
2022/06/03 03:26:39;;;;;;;13.25;9.88;;;11.50;96.90;;;;;;5043029;28;20037;-75
2022/06/03 03:29:26;;;;;;;15.75;11.02;;;11.40;96.80;;;;;;5032514;28;20051;-78
2022/06/03 03:32:11;;;;;;;15.75;11.23;;;11.20;96.90;;;;;;5042143;28;20067;-77
2022/06/03 03:35:11;;;;;;;16.60;11.40;;;11.20;97.30;;;;;;5038674;28;20037;-76
2022/06/03 03:38:15;;;;;;;14.48;11.13;;;11.20;97.70;;;;;;5026543;28;20037;-75
2022/06/03 03:40:57;;;;;;;15.15;11.40;;;11.10;97.80;;;;;;5033536;28;20037;-75
2022/06/03 03:43:28;;;;;;;17.48;12.70;;;11.10;98.10;;;;;;5037233;28;20067;-74
2022/06/03 03:46:29;;;;;;;16.35;11.32;;;11.10;98.20;;;;;;5024536;28;20037;-78
2022/06/03 03:49:59;;;;;;;16.45;10.77;;;11.10;98.10;;;;;;5042094;28;20122;-78
2022/06/03 03:52:43;;;;;;;;;;;11.10;98.00;;;;;;5009008;28;20030;-76
2022/06/03 03:55:24;;;;;;;19.52;12.13;;;11.10;98.00;;;;;;5005081;28;19914;-74
2022/06/03 03:57:57;;;;;;;17.52;12.13;;;11.20;97.90;;;;;;5019350;28;20121;-75
2022/06/03 04:00:58;;;;;;;16.50;12.52;;;11.10;97.80;;;;;;5014665;28;20039;-75
2022/06/03 04:04:08;;;;;;;19.45;11.98;;;11.00;97.80;;;;;;5006579;28;20465;-74
2022/06/03 04:06:42;;;;;;;21.40;12.55;;;11.00;98.10;;;;;;4953418;28;20090;-75
2022/06/03 04:09:26;;;;;;;18.63;12.65;;;11.00;98.10;;;;;;4956762;28;20046;-75
2022/06/03 04:12:04;;;;;;;19.60;12.80;;;11.00;98.20;;;;;;4951413;28;20034;-75
2022/06/03 04:15:01;;;;;;;19.35;12.85;;;11.00;98.50;;;;;;4948499;28;20577;-74
2022/06/03 04:17:45;;;;;;;22.42;13.25;;;11.00;98.80;;;;;;4959118;28;20519;-74
2022/06/03 04:20:32;;;;;;;17.17;11.52;;;11.00;98.70;;;;;;4952725;28;20548;-75
2022/06/03 04:23:06;;;;;;;19.33;12.52;;;11.10;98.70;;;;;;4964010;28;20042;-74
2022/06/03 04:25:38;;;;;;;18.70;11.85;;;11.20;98.70;;;;;;4996530;28;20034;-78
2022/06/03 04:28:18;;;;;;;20.25;13.05;;;11.30;98.50;;;;;;4994906;28;20046;-76
2022/06/03 04:30:55;;;;;;;21.80;12.73;;;11.30;98.40;;;;;;4994743;28;20057;-78
2022/06/03 04:33:29;;;;;;;22.67;12.60;;;11.30;98.40;;;;;;4999570;28;20550;-75
2022/06/03 04:36:13;;;;;;;21.63;12.90;;;11.40;98.10;;;;;;4993228;28;20448;-76
2022/06/03 04:39:06;;;;;;;25.17;14.15;;;11.40;98.10;;;;;;4995250;28;20073;-78
2022/06/03 04:41:48;;;;;;;21.63;13.18;;;11.40;98.70;;;;;;5038821;28;20036;-75
2022/06/03 04:44:51;;;;;;;20.88;12.15;;;11.40;98.50;;;;;;5036911;28;20124;-74
2022/06/03 04:47:40;;;;;;;16.08;10.55;;;11.30;98.50;;;;;;5051283;28;20478;-77
2022/06/03 04:50:24;;;;;;;17.17;10.02;;;11.30;98.80;;;;;;5050355;28;20028;-75
2022/06/03 04:53:05;;;;;;;17.17;10.48;;;11.40;98.70;;;;;;5052679;28;20055;-73
2022/06/03 04:55:43;;;;;;;15.90;10.32;;;11.40;98.40;;;;;;5053566;28;20029;-74
2022/06/03 04:58:24;;;;;;;13.98;10.40;;;11.40;98.50;;;;;;5050834;28;20029;-74
2022/06/03 05:01:11;;;;;;;21.00;12.38;;;11.40;98.70;;;;;;5034492;28;20171;-76
2022/06/03 05:04:14;;;;;;;13.00;9.15;;;11.40;98.70;;;;;;5028204;28;20076;-73
2022/06/03 05:07:31;;;;;;;18.90;10.45;;;11.50;98.70;;;;;;5037815;28;20472;-77
2022/06/03 05:10:15;;;;;;;14.90;10.05;;;11.50;98.60;;;;;;5031019;28;20116;-75
2022/06/03 05:12:56;;;;;;;15.27;9.13;;;11.60;98.50;;;;;;5046523;28;20028;-76
2022/06/03 05:15:49;;;;;;;14.48;10.30;;;11.60;98.40;;;;;;5049233;28;20044;-74
2022/06/03 05:18:39;;;;;;;19.85;12.52;;;11.70;98.30;;;;;;5050967;28;20095;-74
2022/06/03 05:21:27;;;;;;;27.05;15.63;;;11.90;98.40;;;;;;5053491;28;20036;-75
2022/06/03 05:23:58;;;;;;;21.75;12.65;;;11.90;98.10;;;;;;5036680;28;20033;-77
2022/06/03 05:26:45;;;;;;;17.48;10.35;;;12.00;97.90;;;;;;5034302;28;20067;-77
2022/06/03 05:29:36;;;;;;;17.02;9.80;;;12.10;97.80;;;;;;5055313;28;20029;-77
2022/06/03 05:32:38;;;;;;;15.75;9.05;;;12.10;97.80;;;;;;5044686;28;20036;-75
2022/06/03 05:35:31;;;;;;;14.85;8.73;;;12.10;97.60;;;;;;5049170;28;20041;-76
2022/06/03 05:38:35;;;;;;;15.10;9.98;;;12.20;97.50;;;;;;5056125;28;20106;-75
2022/06/03 05:44:40;;;;;;;14.68;9.98;;;12.30;97.30;;;;;;5049766;28;20045;-76
2022/06/03 05:47:13;;;;;;;14.27;9.57;;;12.40;97.40;;;;;;5052969;28;20044;-75
2022/06/03 05:49:52;;;;;;;15.07;9.85;;;12.40;97.40;;;;;;5041239;28;20540;-75
2022/06/03 05:52:43;;;;;;;17.27;10.50;;;12.40;97.30;;;;;;5036196;28;20037;-75
2022/06/03 05:55:27;;;;;;;16.33;11.13;;;12.50;97.40;;;;;;5049625;28;20025;-74
2022/06/03 05:58:04;;;;;;;15.63;9.77;;;12.50;97.40;;;;;;5052240;28;20037;-74
2022/06/03 06:00:52;;;;;;;17.40;10.35;;;12.60;97.50;;;;;;5035260;28;20036;-76
2022/06/03 06:03:43;;;;;;;16.13;10.88;;;12.70;97.50;;;;;;5033677;28;20054;-74
2022/06/03 06:06:31;;;;;;;14.48;9.75;;;12.70;97.40;;;;;;5055827;28;20040;-74
2022/06/03 06:09:31;;;;;;;14.73;10.35;;;12.80;97.00;;;;;;5054617;28;20028;-74
2022/06/03 06:12:07;;;;;;;16.27;10.27;;;12.90;97.10;;;;;;5052583;28;20465;-73
2022/06/03 06:14:57;;;;;;;16.48;10.48;;;13.00;97.00;;;;;;5039850;28;20506;-74
2022/06/03 06:17:47;;;;;;;21.58;12.43;;;13.10;97.00;;;;;;5052633;28;20083;-73
2022/06/03 06:20:22;;;;;;;15.52;10.30;;;13.20;97.00;;;;;;5049671;28;20650;-74
2022/06/03 06:22:52;;;;;;;17.95;11.68;;;13.20;96.90;;;;;;5059266;28;20103;-76
2022/06/03 06:25:25;;;;;;;;;;;13.20;96.80;;;;;;5058802;28;20098;-74
2022/06/03 06:27:57;;;;;;;15.00;9.68;;;13.20;96.70;;;;;;5059872;28;19916;-75
2022/06/03 06:30:40;;;;;;;14.48;9.68;;;13.20;96.80;;;;;;5045651;28;20025;-75
2022/06/03 06:33:37;;;;;;;14.70;10.30;;;13.20;97.00;;;;;;5060069;28;20054;-76
2022/06/03 06:36:34;;;;;;;13.38;9.35;;;13.30;97.10;;;;;;5042000;28;20032;-73
2022/06/03 06:39:11;;;;;;;14.18;9.52;;;13.40;96.90;;;;;;5047353;28;20053;-78
2022/06/03 06:41:46;;;;;;;14.05;8.85;;;13.50;96.70;;;;;;5059441;28;20056;-74
2022/06/03 06:44:32;;;;;;;14.32;9.68;;;13.70;96.60;;;;;;5049648;28;20044;-76
2022/06/03 06:47:25;;;;;;;14.38;9.57;;;13.80;96.50;;;;;;5033892;28;20062;-73
2022/06/03 06:50:06;;;;;;;14.23;9.23;;;13.90;96.10;;;;;;5054529;28;20128;-74
2022/06/03 06:52:48;;;;;;;14.35;9.02;;;14.00;95.80;;;;;;5031182;28;20519;-74
2022/06/03 06:55:17;;;;;;;16.65;11.60;;;14.10;95.60;;;;;;5054719;28;20036;-75
2022/06/03 06:57:49;;;;;;;16.33;10.65;;;14.20;95.50;;;;;;5056120;28;20071;-73
2022/06/03 07:00:40;;;;;;;20.08;10.82;;;14.40;95.20;;;;;;5038045;28;20124;-75
2022/06/03 07:03:38;;;;;;;18.52;10.88;;;14.60;95.10;;;;;;5044000;28;20040;-75
2022/06/03 07:06:31;;;;;;;14.82;9.65;;;14.80;94.70;;;;;;5045889;28;20033;-75
2022/06/03 07:09:25;;;;;;;13.65;9.32;;;15.00;94.50;;;;;;5039293;28;20439;-74
2022/06/03 07:11:57;;;;;;;14.50;9.85;;;15.40;93.70;;;;;;5050069;28;20028;-73
2022/06/03 07:14:30;;;;;;;16.35;9.30;;;15.70;93.20;;;;;;5033696;28;20032;-73
2022/06/03 07:19:57;;;;;;;13.07;9.55;;;16.30;92.90;;;;;;5045364;28;20074;-76
2022/06/03 07:22:44;;;;;;;13.38;8.32;;;16.50;91.80;;;;;;5053125;28;20052;-74
2022/06/03 07:25:16;;;;;;;13.68;8.93;;;16.80;90.90;;;;;;5032228;28;20753;-74
2022/06/03 07:27:59;;;;;;;12.77;8.90;;;17.10;90.70;;;;;;5050071;28;20035;-76
2022/06/03 07:31:09;;;;;;;12.98;9.13;;;17.20;90.10;;;;;;5058474;28;20033;-72
2022/06/03 07:33:47;;;;;;;13.00;8.45;;;17.40;88.60;;;;;;5025844;28;20530;-74
2022/06/03 07:36:21;;;;;;;12.48;8.23;;;17.60;85.20;;;;;;5036850;28;20483;-73
2022/06/03 07:39:00;;;;;;;12.88;7.70;;;17.90;86.10;;;;;;5044663;28;20043;-75
2022/06/03 07:41:32;;;;;;;;;;;18.00;84.70;;;;;;5033958;28;20041;-74
2022/06/03 07:44:15;;;;;;;10.50;7.05;;;18.10;82.80;;;;;;5044966;28;19917;-76
2022/06/03 07:46:41;;;;;;;9.93;6.22;;;18.20;82.30;;;;;;5047244;28;20112;-75
2022/06/03 07:49:08;;;;;;;11.07;6.80;;;18.20;82.50;;;;;;5040003;28;20558;-78
2022/06/03 07:51:42;;;;;;;9.85;6.63;;;18.20;82.80;;;;;;5039938;28;20037;-79
2022/06/03 07:54:25;;;;;;;11.10;7.47;;;18.30;82.40;;;;;;5038624;28;20034;-73
2022/06/03 07:57:04;;;;;;;11.80;8.20;;;18.50;82.20;;;;;;5018034;28;20040;-83
2022/06/03 07:59:34;;;;;;;14.30;7.97;;;18.70;81.10;;;;;;5040515;28;20051;-81
2022/06/03 08:02:13;;;;;;;10.10;7.47;;;18.90;78.00;;;;;;5042985;28;20033;-79
2022/06/03 08:04:40;;;;;;;11.63;6.60;;;19.20;79.20;;;;;;5033940;28;20032;-72
2022/06/03 08:12:59;;;;;;;8.85;5.25;;;19.70;74.60;;;;;;5037468;28;20044;-77
2022/06/03 08:15:33;;;;;;;8.02;5.35;;;19.70;74.30;;;;;;5048601;28;20048;-73
2022/06/03 08:18:02;;;;;;;5.57;4.40;;;19.70;72.00;;;;;;5045327;28;20041;-77
2022/06/03 08:20:29;;;;;;;8.02;4.65;;;19.80;76.70;;;;;;5047453;28;20040;-77
2022/06/03 08:22:55;;;;;;;8.63;4.47;;;19.80;74.50;;;;;;5045455;28;20040;-74
2022/06/03 08:25:29;;;;;;;7.65;4.50;;;19.80;75.30;;;;;;5056108;28;20036;-76
2022/06/03 08:27:59;;;;;;;6.72;4.32;;;19.70;74.80;;;;;;5048381;28;20037;-76
2022/06/03 08:30:28;;;;;;;7.88;5.03;;;19.60;75.10;;;;;;5048262;28;20195;-76
2022/06/03 08:32:59;;;;;;;8.57;4.80;;;19.60;73.20;;;;;;5046961;28;20036;-73
2022/06/03 08:35:28;;;;;;;8.20;4.75;;;19.50;75.50;;;;;;5027043;28;20120;-74
2022/06/03 08:38:09;;;;;;;;;;;19.70;73.80;;;;;;5024328;28;20388;-78
2022/06/03 08:41:01;;;;;;;7.13;3.83;;;19.90;71.20;;;;;;5043417;28;19925;-77
2022/06/03 08:43:49;;;;;;;7.63;3.60;;;20.10;72.10;;;;;;5024951;28;20403;-74
2022/06/03 08:46:18;;;;;;;6.47;3.70;;;20.50;70.30;;;;;;5045282;28;20041;-76
2022/06/03 08:48:45;;;;;;;5.30;2.60;;;20.70;68.70;;;;;;5043834;28;20036;-74
2022/06/03 08:52:12;;;;;;;4.88;2.70;;;20.90;69.20;;;;;;5028483;28;20040;-77
2022/06/03 08:54:49;;;;;;;5.28;2.30;;;21.20;67.20;;;;;;4982672;28;20804;-75
2022/06/03 08:57:41;;;;;;;3.90;2.33;;;21.50;63.80;;;;;;4983759;28;20038;-75
2022/06/03 09:00:15;;;;;;;4.18;2.25;;;21.70;63.80;;;;;;4980769;28;20062;-74
2022/06/03 09:03:12;;;;;;;3.40;2.10;;;21.80;60.20;;;;;;4968293;28;20097;-78
2022/06/03 09:05:44;;;;;;;3.83;2.00;;;21.80;57.70;;;;;;4976181;28;20658;-75
2022/06/03 09:08:41;;;;;;;4.82;1.95;;;22.00;61.80;;;;;;4988838;28;20092;-74
2022/06/03 09:11:25;;;;;;;3.35;1.75;;;22.10;56.70;;;;;;4976267;28;20500;-76
2022/06/03 09:14:00;;;;;;;4.97;1.75;;;22.30;54.40;;;;;;4984753;28;20038;-74
2022/06/03 09:16:29;;;;;;;5.00;2.33;;;22.50;55.40;;;;;;4998915;28;20049;-72
2022/06/03 09:19:20;;;;;;;4.57;1.80;;;22.60;53.50;;;;;;4998841;28;20042;-73
2022/06/03 09:21:51;;;;;;;3.25;1.58;;;22.70;53.20;;;;;;4983685;28;20030;-78
2022/06/03 09:24:32;;;;;;;4.75;2.05;;;22.70;52.60;;;;;;4983239;28;20052;-82
2022/06/03 09:27:00;;;;;;;4.10;1.45;;;22.60;51.10;;;;;;4993184;28;20086;-73
2022/06/03 09:29:26;;;;;;;3.13;1.60;;;22.70;53.40;;;;;;5041575;28;20142;-77
2022/06/03 09:32:01;;;;;;;8.00;2.28;;;22.80;54.20;;;;;;5039187;28;20026;-75
2022/06/03 09:34:43;;;;;;;3.72;1.92;;;22.80;53.70;;;;;;5041049;28;20033;-73
2022/06/03 09:37:15;;;;;;;6.47;1.75;;;22.70;53.30;;;;;;5046135;28;20736;-74
2022/06/03 09:39:44;;;;;;;4.82;2.00;;;22.80;52.60;;;;;;5045803;28;20040;-74
2022/06/03 09:42:12;;;;;;;2.97;1.35;;;22.90;51.20;;;;;;5047216;28;20068;-74
2022/06/03 09:44:40;;;;;;;3.47;1.42;;;22.90;48.80;;;;;;5042659;28;20036;-73
2022/06/03 09:47:08;;;;;;;5.22;1.90;;;23.00;49.50;;;;;;5035676;28;20780;-75
2022/06/03 09:49:34;;;;;;;4.10;1.50;;;23.10;50.80;;;;;;5027672;28;20029;-75
2022/06/03 09:52:03;;;;;;;3.78;1.80;;;23.20;49.80;;;;;;5043835;28;20060;-74
2022/06/03 09:54:39;;;;;;;3.58;1.55;;;23.20;48.50;;;;;;5044491;28;20145;-79
2022/06/03 09:57:18;;;;;;;5.60;2.03;;;23.30;50.70;;;;;;5030814;28;20044;-76
2022/06/03 09:59:54;;;;;;;3.03;1.30;;;23.40;50.50;;;;;;5046857;28;20041;-74
2022/06/03 10:02:20;;;;;;;2.70;1.40;;;23.50;49.20;;;;;;5026437;28;20121;-74
2022/06/03 10:04:46;;;;;;;3.55;1.60;;;23.70;51.00;;;;;;5035872;28;20116;-73
2022/06/03 10:07:12;;;;;;;3.35;1.80;;;23.80;47.50;;;;;;5027825;28;20041;-74
2022/06/03 10:12:50;;;;;;;3.67;1.52;;;23.80;51.80;;;;;;5037493;28;20095;-73
2022/06/03 10:15:42;;;;;;;3.60;1.60;;;23.90;48.70;;;;;;5035417;28;20033;-79
2022/06/03 10:18:28;;;;;;;3.50;1.77;;;23.90;48.80;;;;;;5031579;28;20119;-77
2022/06/03 10:20:56;;;;;;;6.07;2.60;;;24.00;52.60;;;;;;5042575;28;20115;-75
2022/06/03 10:23:26;;;;;;;4.30;2.50;;;24.00;54.00;;;;;;5052980;28;20143;-76
2022/06/03 10:25:52;;;;;;;4.97;2.17;;;23.90;52.40;;;;;;5045059;28;20033;-73
2022/06/03 10:28:19;;;;;;;4.60;2.10;;;23.80;53.80;;;;;;5053430;28;20032;-73
2022/06/03 10:30:57;;;;;;;5.20;2.25;;;23.70;53.30;;;;;;5050399;28;20033;-74
2022/06/03 10:33:22;;;;;;;3.85;2.15;;;23.80;53.80;;;;;;5055051;28;20052;-74
2022/06/03 10:35:50;;;;;;;4.82;2.08;;;23.90;53.70;;;;;;5050698;28;20059;-76
2022/06/03 10:38:18;;;;;;;6.22;1.90;;;23.80;51.80;;;;;;5059284;28;20033;-73
2022/06/03 10:40:48;;;;;;;7.45;1.77;;;23.90;50.10;;;;;;5049984;28;20046;-78
2022/06/03 10:43:24;;;;;;;4.70;1.65;;;24.00;52.20;;;;;;5044117;28;20056;-73
2022/06/03 10:45:50;;;;;;;3.65;1.70;;;24.20;52.00;;;;;;5053124;28;20125;-75
2022/06/03 10:48:24;;;;;;;4.68;1.90;;;24.40;49.40;;;;;;5052159;28;20094;-78
2022/06/03 10:50:51;;;;;;;3.35;1.60;;;24.60;46.70;;;;;;5050523;28;20086;-78
2022/06/03 11:01:06;;;;;;;2.33;1.50;;;24.90;47.00;;;;;;5051782;28;20853;-75
2022/06/03 11:02:00;;;;;;;4.40;2.33;;;25.10;49.00;;;;;;5052848;28;20035;-77
2022/06/03 11:04:29;;;;;;;5.15;2.00;;;25.10;51.10;;;;;;5033798;28;20030;-78
2022/06/03 11:07:00;;;;;;;4.82;1.98;;;25.20;49.20;;;;;;5043857;28;20531;-76
2022/06/03 11:09:26;;;;;;;4.35;2.10;;;25.20;47.70;;;;;;5045474;28;20090;-77
2022/06/03 11:11:58;;;;;;;4.38;2.03;;;25.30;49.30;;;;;;5047771;28;20029;-72
2022/06/03 11:14:36;;;;;;;5.32;2.50;;;25.00;48.90;;;;;;5042120;28;20546;-75
2022/06/03 11:17:04;;;;;;;3.72;2.00;;;24.90;49.70;;;;;;5045996;28;20068;-82
2022/06/03 11:19:33;;;;;;;3.75;1.88;;;25.70;49.30;;;;;;5050539;28;20059;-72
2022/06/03 11:22:33;;;;;;;5.03;1.90;;;26.30;47.60;;;;;;5024330;28;20552;-75
2022/06/03 11:25:03;;;;;;;5.78;2.20;;;26.90;47.00;;;;;;5051531;28;20045;-74
2022/06/03 11:28:05;;;;;;;4.65;2.28;;;26.30;45.70;;;;;;5060908;28;20622;-75
2022/06/03 11:30:48;;;;;;;6.15;1.98;;;26.10;44.80;;;;;;5030524;28;20029;-74
2022/06/03 11:33:36;;;;;;;5.35;2.13;;;26.00;44.70;;;;;;5056059;28;20136;-79
2022/06/03 11:36:17;;;;;;;4.10;1.77;;;25.90;44.30;;;;;;5032346;28;20123;-74
2022/06/03 11:38:52;;;;;;;4.63;2.08;;;25.80;46.20;;;;;;5045130;28;20028;-74
2022/06/03 11:41:23;;;;;;;4.07;1.77;;;25.80;46.60;;;;;;5043841;28;20044;-73
2022/06/03 11:43:58;;;;;;;5.20;1.67;;;25.50;46.70;;;;;;5051372;28;20935;-75
2022/06/03 11:46:50;;;;;;;4.40;1.70;;;25.20;48.10;;;;;;5055956;28;20094;-73
2022/06/03 11:49:21;;;;;;;4.10;1.90;;;25.30;46.10;;;;;;5018414;28;20549;-72
2022/06/03 11:51:47;;;;;;;5.72;2.00;;;25.20;44.90;;;;;;5046456;28;20459;-74
2022/06/03 11:54:16;;;;;;;4.30;2.00;;;25.10;44.90;;;;;;5054985;28;20025;-73
2022/06/03 11:56:44;;;;;;;5.80;2.53;;;25.10;46.80;;;;;;5037091;28;20115;-74
2022/06/03 11:59:13;;;;;;;4.40;2.00;;;25.00;46.00;;;;;;5032315;28;20043;-79
2022/06/03 12:01:51;;;;;;;4.65;2.08;;;25.00;47.70;;;;;;5049641;28;20032;-74
2022/06/03 12:04:44;;;;;;;4.47;2.22;;;25.00;49.50;;;;;;5049728;28;20025;-73
2022/06/03 12:07:41;;;;;;;6.43;2.25;;;25.10;49.10;;;;;;5030689;28;20051;-74
2022/06/03 12:10:19;;;;;;;4.78;2.30;;;24.80;48.30;;;;;;5047315;28;20033;-77
2022/06/03 12:15:32;;;;;;;4.50;1.90;;;24.80;49.70;;;;;;5037423;28;20043;-78
2022/06/03 12:18:16;;;;;;;4.85;2.20;;;24.90;49.80;;;;;;5031240;28;20028;-78
2022/06/03 12:20:48;;;;;;;6.05;2.60;;;24.90;50.10;;;;;;5040737;28;20532;-75
2022/06/03 12:23:13;;;;;;;6.25;2.40;;;25.00;50.90;;;;;;5023561;28;20531;-77
2022/06/03 12:26:02;;;;;;;5.15;2.10;;;25.10;50.30;;;;;;5040436;28;20031;-78
2022/06/03 12:28:31;;;;;;;2.38;1.70;;;25.20;45.80;;;;;;5033668;28;20589;-76
2022/06/03 12:31:17;;;;;;;3.55;1.83;;;25.30;45.80;;;;;;5041136;28;20120;-77
2022/06/03 12:33:43;;;;;;;3.33;2.08;;;25.40;43.50;;;;;;5045110;28;20057;-76
2022/06/03 12:36:24;;;;;;;4.13;2.40;;;25.50;43.80;;;;;;5051316;28;20728;-76
2022/06/03 12:39:11;;;;;;;5.03;2.10;;;25.40;43.30;;;;;;5033086;28;20603;-74
2022/06/03 12:41:46;;;;;;;6.15;2.72;;;25.50;44.70;;;;;;5043586;28;20056;-75
2022/06/03 12:44:42;;;;;;;6.85;2.40;;;25.60;49.30;;;;;;5045517;28;20033;-76
2022/06/03 12:47:33;;;;;;;6.03;3.15;;;25.70;49.20;;;;;;5043032;28;20391;-74
2022/06/03 12:50:05;;;;;;;6.57;3.40;;;25.40;49.90;;;;;;5025585;28;20090;-74
2022/06/03 12:52:31;;;;;;;5.95;3.10;;;25.00;49.30;;;;;;5027027;28;20035;-74
2022/06/03 12:55:06;;;;;;;5.82;3.00;;;24.70;51.10;;;;;;5022039;28;20026;-78
2022/06/03 12:57:51;;;;;;;8.38;2.85;;;24.50;51.60;;;;;;5030154;28;20044;-75
2022/06/03 13:00:20;;;;;;;7.75;3.28;;;24.30;53.10;;;;;;5010926;28;20044;-78
2022/06/03 13:03:04;;;;;;;4.93;2.67;;;24.20;52.30;;;;;;5028631;28;20044;-76
2022/06/03 13:05:49;;;;;;;6.10;3.35;;;24.00;53.40;;;;;;5033329;28;20036;-76
2022/06/03 13:08:27;;;;;;;4.90;2.70;;;23.80;53.30;;;;;;5039288;28;20032;-78
2022/06/03 13:11:01;;;;;;;7.53;2.78;;;23.60;55.20;;;;;;5047502;28;20028;-79
2022/06/03 13:13:30;;;;;;;8.00;3.00;;;23.70;56.80;;;;;;5044471;28;20031;-75
2022/06/03 13:16:28;;;;;;;5.93;2.75;;;23.80;55.40;;;;;;5047620;28;20146;-75
2022/06/03 13:19:21;;;;;;;5.55;2.80;;;23.80;55.70;;;;;;5030026;28;20441;-78
2022/06/03 13:22:02;;;;;;;7.57;3.47;;;23.70;54.20;;;;;;5048114;28;20130;-75
2022/06/03 13:24:36;;;;;;;8.75;3.20;;;23.70;54.40;;;;;;5024656;28;20732;-75
2022/06/03 13:27:20;;;;;;;5.82;3.17;;;23.70;56.00;;;;;;5046562;28;20473;-76
2022/06/03 13:29:52;;;;;;;6.68;3.28;;;23.60;54.60;;;;;;5052714;28;20121;-73
2022/06/03 13:32:20;;;;;;;6.00;3.30;;;23.50;54.40;;;;;;5048290;28;20160;-76
2022/06/03 13:34:46;;;;;;;5.57;3.13;;;23.30;55.30;;;;;;5047096;28;20056;-75
2022/06/03 13:37:31;;;;;;;7.00;3.15;;;23.10;54.80;;;;;;5026858;28;20072;-75
2022/06/03 13:39:57;;;;;;;5.38;2.55;;;22.90;55.40;;;;;;5046429;28;20048;-77
2022/06/03 13:42:58;;;;;;;5.70;2.83;;;22.90;57.10;;;;;;5044803;28;20053;-77
2022/06/03 13:45:43;;;;;;;5.72;2.50;;;22.90;56.40;;;;;;5047099;28;20078;-76
2022/06/03 13:48:19;;;;;;;6.55;3.10;;;22.90;56.00;;;;;;5045972;28;20187;-76
2022/06/03 13:50:45;;;;;;;6.95;3.03;;;22.90;55.10;;;;;;5047604;28;20116;-78
2022/06/03 13:53:13;;;;;;;7.85;3.00;;;22.80;54.60;;;;;;5047106;28;20120;-75
2022/06/03 13:55:39;;;;;;;4.93;2.73;;;22.80;54.10;;;;;;5023574;28;20530;-80
2022/06/03 13:58:31;;;;;;;6.15;2.80;;;22.80;54.80;;;;;;5035556;28;20036;-77
2022/06/03 14:01:20;;;;;;;5.03;2.72;;;22.80;54.70;;;;;;5030599;28;20045;-77
2022/06/03 14:03:56;;;;;;;7.57;2.95;;;22.80;54.30;;;;;;5041361;28;20065;-77
2022/06/03 14:06:46;;;;;;;4.93;2.50;;;22.70;54.40;;;;;;5046922;28;20104;-76
2022/06/03 14:09:27;;;;;;;3.45;2.20;;;22.70;54.30;;;;;;5024086;28;20044;-76
2022/06/03 14:11:57;;;;;;;4.53;2.55;;;22.60;54.10;;;;;;5012600;28;20083;-76
2022/06/03 14:14:55;;;;;;;5.38;2.35;;;22.40;54.50;;;;;;5025297;28;20033;-76
2022/06/03 14:17:32;;;;;;;5.22;2.65;;;22.30;55.10;;;;;;5032232;28;20033;-77
2022/06/03 14:20:11;;;;;;;5.13;3.05;;;22.20;53.70;;;;;;5038848;28;20501;-76
2022/06/03 14:22:44;;;;;;;6.22;3.40;;;22.10;55.00;;;;;;5037793;28;20063;-76